sensor_id;sensor_type;location;lat;lon;timestamp;temperature;humidity
30336;DHT22;17142;47.990;7.846;2023-02-12T08:16:02;0.00;99.90
30336;DHT22;17142;47.990;7.846;2023-02-12T08:18:44;0.10;99.90
30336;DHT22;17142;47.990;7.846;2023-02-12T08:21:15;0.20;99.90
30336;DHT22;17142;47.990;7.846;2023-02-12T08:23:41;0.20;99.90
30336;DHT22;17142;47.990;7.846;2023-02-12T08:26:13;0.40;99.90
30336;DHT22;17142;47.990;7.846;2023-02-12T08:28:41;0.50;99.90
30336;DHT22;17142;47.990;7.846;2023-02-12T08:31:21;0.60;99.90
30336;DHT22;17142;47.990;7.846;2023-02-12T08:33:51;0.80;99.90
30336;DHT22;17142;47.990;7.846;2023-02-12T08:36:21;0.90;99.90
30336;DHT22;17142;47.990;7.846;2023-02-12T08:38:50;1.10;99.90
30336;DHT22;17142;47.990;7.846;2023-02-12T08:41:23;1.20;99.90
30336;DHT22;17142;47.990;7.846;2023-02-12T08:43:52;1.40;99.90
30336;DHT22;17142;47.990;7.846;2023-02-12T08:46:20;1.80;99.90
30336;DHT22;17142;47.990;7.846;2023-02-12T08:48:46;2.40;99.90
30336;DHT22;17142;47.990;7.846;2023-02-12T08:51:14;2.70;99.90
30336;DHT22;17142;47.990;7.846;2023-02-12T08:53:41;2.90;99.90
30336;DHT22;17142;47.990;7.846;2023-02-12T08:56:09;2.80;99.90
30336;DHT22;17142;47.990;7.846;2023-02-12T08:58:38;2.80;99.90
30336;DHT22;17142;47.990;7.846;2023-02-12T09:01:07;2.70;99.90
30336;DHT22;17142;47.990;7.846;2023-02-12T09:03:33;2.70;99.90
30336;DHT22;17142;47.990;7.846;2023-02-12T09:06:02;2.70;99.90
30336;DHT22;17142;47.990;7.846;2023-02-12T09:08:30;2.80;99.90
30336;DHT22;17142;47.990;7.846;2023-02-12T09:10:56;3.10;99.90
30336;DHT22;17142;47.990;7.846;2023-02-12T09:13:22;3.40;99.90
30336;DHT22;17142;47.990;7.846;2023-02-12T09:15:50;3.80;99.90
30336;DHT22;17142;47.990;7.846;2023-02-12T09:18:18;4.00;99.90
30336;DHT22;17142;47.990;7.846;2023-02-12T09:20:44;4.20;99.90
30336;DHT22;17142;47.990;7.846;2023-02-12T09:23:12;4.30;99.90
30336;DHT22;17142;47.990;7.846;2023-02-12T09:25:45;4.40;99.90
30336;DHT22;17142;47.990;7.846;2023-02-12T09:28:12;4.50;99.90
30336;DHT22;17142;47.990;7.846;2023-02-12T09:30:39;4.50;99.90
30336;DHT22;17142;47.990;7.846;2023-02-12T09:33:05;4.50;99.90
30336;DHT22;17142;47.990;7.846;2023-02-12T09:35:35;4.50;99.90
30336;DHT22;17142;47.990;7.846;2023-02-12T09:38:03;4.40;99.90
30336;DHT22;17142;47.990;7.846;2023-02-12T09:46:00;4.30;99.90
30336;DHT22;17142;47.990;7.846;2023-02-12T09:51:20;4.30;99.90
30336;DHT22;17142;47.990;7.846;2023-02-12T09:54:02;4.30;99.90
30336;DHT22;17142;47.990;7.846;2023-02-12T09:56:29;4.30;99.90
30336;DHT22;17142;47.990;7.846;2023-02-12T09:59:00;4.30;99.90
30336;DHT22;17142;47.990;7.846;2023-02-12T10:01:29;4.40;99.90
30336;DHT22;17142;47.990;7.846;2023-02-12T10:03:59;4.40;99.90
30336;DHT22;17142;47.990;7.846;2023-02-12T10:06:28;4.50;99.90
30336;DHT22;17142;47.990;7.846;2023-02-12T10:12:05;4.50;99.90
30336;DHT22;17142;47.990;7.846;2023-02-12T10:14:56;4.60;99.90
30336;DHT22;17142;47.990;7.846;2023-02-12T10:17:50;4.70;99.90
30336;DHT22;17142;47.990;7.846;2023-02-12T10:28:41;5.00;99.90
30336;DHT22;17142;47.990;7.846;2023-02-12T10:31:40;5.00;99.90
30336;DHT22;17142;47.990;7.846;2023-02-12T10:36:45;5.30;99.90
30336;DHT22;17142;47.990;7.846;2023-02-12T10:39:20;5.30;99.90
30336;DHT22;17142;47.990;7.846;2023-02-12T10:44:32;5.40;99.90
30336;DHT22;17142;47.990;7.846;2023-02-12T10:46:58;5.40;99.90
30336;DHT22;17142;47.990;7.846;2023-02-12T10:49:30;5.50;99.90
30336;DHT22;17142;47.990;7.846;2023-02-12T10:52:17;5.50;99.90
30336;DHT22;17142;47.990;7.846;2023-02-12T10:54:48;5.60;99.90
30336;DHT22;17142;47.990;7.846;2023-02-12T10:57:25;5.70;99.90
30336;DHT22;17142;47.990;7.846;2023-02-12T10:59:54;5.80;99.90
30336;DHT22;17142;47.990;7.846;2023-02-12T11:02:29;5.90;99.90
30336;DHT22;17142;47.990;7.846;2023-02-12T11:04:57;5.90;99.90
30336;DHT22;17142;47.990;7.846;2023-02-12T11:07:25;5.90;99.90
30336;DHT22;17142;47.990;7.846;2023-02-12T11:09:53;5.90;99.90
30336;DHT22;17142;47.990;7.846;2023-02-12T11:15:23;6.10;99.90
30336;DHT22;17142;47.990;7.846;2023-02-12T11:20:29;6.30;99.90
30336;DHT22;17142;47.990;7.846;2023-02-12T11:22:58;6.40;99.90
30336;DHT22;17142;47.990;7.846;2023-02-12T11:25:33;6.50;99.90
30336;DHT22;17142;47.990;7.846;2023-02-12T11:28:05;6.60;99.90
30336;DHT22;17142;47.990;7.846;2023-02-12T11:30:49;6.70;99.90
30336;DHT22;17142;47.990;7.846;2023-02-12T11:33:21;6.70;99.90
30336;DHT22;17142;47.990;7.846;2023-02-12T11:38:27;6.70;99.90
30336;DHT22;17142;47.990;7.846;2023-02-12T11:41:01;6.70;99.90
30336;DHT22;17142;47.990;7.846;2023-02-12T11:43:34;6.80;99.90
30336;DHT22;17142;47.990;7.846;2023-02-12T11:46:04;6.80;99.90
30336;DHT22;17142;47.990;7.846;2023-02-12T11:48:35;6.80;99.90
30336;DHT22;17142;47.990;7.846;2023-02-12T11:51:07;6.90;99.90
30336;DHT22;17142;47.990;7.846;2023-02-12T11:53:39;7.00;99.90
30336;DHT22;17142;47.990;7.846;2023-02-12T11:56:10;7.10;99.90
30336;DHT22;17142;47.990;7.846;2023-02-12T11:58:38;7.10;99.90
30336;DHT22;17142;47.990;7.846;2023-02-12T12:01:13;7.10;99.90
30336;DHT22;17142;47.990;7.846;2023-02-12T12:06:47;7.10;99.90
30336;DHT22;17142;47.990;7.846;2023-02-12T12:10:03;7.10;99.90
30336;DHT22;17142;47.990;7.846;2023-02-12T12:12:16;7.10;99.90
30336;DHT22;17142;47.990;7.846;2023-02-12T12:17:44;7.10;99.90
30336;DHT22;17142;47.990;7.846;2023-02-12T12:21:00;7.20;99.90
30336;DHT22;17142;47.990;7.846;2023-02-12T12:23:43;7.20;99.90
30336;DHT22;17142;47.990;7.846;2023-02-12T12:26:25;7.30;99.90
30336;DHT22;17142;47.990;7.846;2023-02-12T12:31:39;7.30;99.90
30336;DHT22;17142;47.990;7.846;2023-02-12T12:51:13;7.60;99.90
30336;DHT22;17142;47.990;7.846;2023-02-12T12:54:13;7.70;99.90
30336;DHT22;17142;47.990;7.846;2023-02-12T13:10:37;7.90;99.90
30336;DHT22;17142;47.990;7.846;2023-02-12T13:16:05;8.00;99.90
30336;DHT22;17142;47.990;7.846;2023-02-12T13:27:05;8.10;99.90
30336;DHT22;17142;47.990;7.846;2023-02-12T13:29:35;8.20;99.90
30336;DHT22;17142;47.990;7.846;2023-02-12T13:32:05;8.20;99.90
30336;DHT22;17142;47.990;7.846;2023-02-12T13:34:33;8.20;99.90
30336;DHT22;17142;47.990;7.846;2023-02-12T13:37:04;8.30;99.90
30336;DHT22;17142;47.990;7.846;2023-02-12T13:39:35;8.40;99.90
30336;DHT22;17142;47.990;7.846;2023-02-12T13:56:27;8.40;99.90
30336;DHT22;17142;47.990;7.846;2023-02-12T13:58:56;8.30;99.90
30336;DHT22;17142;47.990;7.846;2023-02-12T14:04:31;8.50;99.90
30336;DHT22;17142;47.990;7.846;2023-02-12T14:07:06;8.60;99.90
30336;DHT22;17142;47.990;7.846;2023-02-12T14:12:31;8.70;99.90
30336;DHT22;17142;47.990;7.846;2023-02-12T14:20:33;8.80;99.90
30336;DHT22;17142;47.990;7.846;2023-02-12T14:25:45;8.80;99.90
30336;DHT22;17142;47.990;7.846;2023-02-12T14:28:22;8.80;99.90
30336;DHT22;17142;47.990;7.846;2023-02-12T14:34:37;8.90;99.90
30336;DHT22;17142;47.990;7.846;2023-02-12T14:36:42;8.90;99.90
30336;DHT22;17142;47.990;7.846;2023-02-12T14:41:52;8.90;99.90
30336;DHT22;17142;47.990;7.846;2023-02-12T14:49:51;8.80;99.90
30336;DHT22;17142;47.990;7.846;2023-02-12T14:52:32;8.80;99.90
30336;DHT22;17142;47.990;7.846;2023-02-12T14:55:17;8.80;99.90
30336;DHT22;17142;47.990;7.846;2023-02-12T14:57:43;8.80;99.90
30336;DHT22;17142;47.990;7.846;2023-02-12T15:03:12;8.80;99.90
30336;DHT22;17142;47.990;7.846;2023-02-12T15:08:34;8.80;99.90
30336;DHT22;17142;47.990;7.846;2023-02-12T15:19:12;8.90;99.90
30336;DHT22;17142;47.990;7.846;2023-02-12T15:21:43;8.90;99.90
30336;DHT22;17142;47.990;7.846;2023-02-12T15:24:13;8.90;99.90
30336;DHT22;17142;47.990;7.846;2023-02-12T15:26:50;8.90;99.90
30336;DHT22;17142;47.990;7.846;2023-02-12T15:29:24;8.90;99.90
30336;DHT22;17142;47.990;7.846;2023-02-12T15:32:01;8.80;99.90
30336;DHT22;17142;47.990;7.846;2023-02-12T15:34:31;8.80;99.90
30336;DHT22;17142;47.990;7.846;2023-02-12T15:36:59;8.70;99.90
30336;DHT22;17142;47.990;7.846;2023-02-12T15:39:26;8.60;99.90
30336;DHT22;17142;47.990;7.846;2023-02-12T15:41:55;8.60;99.90
30336;DHT22;17142;47.990;7.846;2023-02-12T15:44:27;8.50;99.90
30336;DHT22;17142;47.990;7.846;2023-02-12T15:47:09;8.40;99.90
30336;DHT22;17142;47.990;7.846;2023-02-12T15:49:37;8.30;99.90
30336;DHT22;17142;47.990;7.846;2023-02-12T15:52:08;8.20;99.90
30336;DHT22;17142;47.990;7.846;2023-02-12T15:54:36;8.10;99.90
30336;DHT22;17142;47.990;7.846;2023-02-12T15:57:09;8.00;99.90
30336;DHT22;17142;47.990;7.846;2023-02-12T15:59:35;7.90;99.90
30336;DHT22;17142;47.990;7.846;2023-02-12T16:02:02;7.80;99.90
30336;DHT22;17142;47.990;7.846;2023-02-12T16:04:33;7.70;99.90
30336;DHT22;17142;47.990;7.846;2023-02-12T16:07:01;7.60;99.90
30336;DHT22;17142;47.990;7.846;2023-02-12T16:09:32;7.50;99.90
30336;DHT22;17142;47.990;7.846;2023-02-12T16:12:06;7.40;99.90
30336;DHT22;17142;47.990;7.846;2023-02-12T16:14:40;7.20;99.90
30336;DHT22;17142;47.990;7.846;2023-02-12T16:20:00;6.90;99.90
30336;DHT22;17142;47.990;7.846;2023-02-12T16:22:39;6.80;99.90
30336;DHT22;17142;47.990;7.846;2023-02-12T16:25:15;6.70;99.90
30336;DHT22;17142;47.990;7.846;2023-02-12T16:27:59;6.50;99.90
30336;DHT22;17142;47.990;7.846;2023-02-12T16:32:51;6.20;99.90
30336;DHT22;17142;47.990;7.846;2023-02-12T16:37:47;5.80;99.90
30336;DHT22;17142;47.990;7.846;2023-02-12T16:50:42;5.00;99.90
30336;DHT22;17142;47.990;7.846;2023-02-12T16:53:34;4.80;99.90
30336;DHT22;17142;47.990;7.846;2023-02-12T16:56:02;4.80;99.90
30336;DHT22;17142;47.990;7.846;2023-02-12T16:58:31;4.70;99.90
30336;DHT22;17142;47.990;7.846;2023-02-12T17:01:03;4.60;99.90
30336;DHT22;17142;47.990;7.846;2023-02-12T17:03:32;4.40;99.90
30336;DHT22;17142;47.990;7.846;2023-02-12T17:06:00;4.30;99.90
30336;DHT22;17142;47.990;7.846;2023-02-12T17:08:25;4.30;99.90
30336;DHT22;17142;47.990;7.846;2023-02-12T17:10:51;4.20;99.90
30336;DHT22;17142;47.990;7.846;2023-02-12T17:13:17;4.20;99.90
30336;DHT22;17142;47.990;7.846;2023-02-12T17:15:58;4.20;99.90
30336;DHT22;17142;47.990;7.846;2023-02-12T17:18:28;4.20;99.90
30336;DHT22;17142;47.990;7.846;2023-02-12T17:21:00;4.20;99.90
30336;DHT22;17142;47.990;7.846;2023-02-12T17:23:29;4.20;99.90
30336;DHT22;17142;47.990;7.846;2023-02-12T17:25:55;4.20;99.90
30336;DHT22;17142;47.990;7.846;2023-02-12T17:28:20;4.20;99.90
30336;DHT22;17142;47.990;7.846;2023-02-12T17:30:47;4.20;99.90
30336;DHT22;17142;47.990;7.846;2023-02-12T17:33:13;4.10;99.90
30336;DHT22;17142;47.990;7.846;2023-02-12T17:35:40;4.10;99.90
30336;DHT22;17142;47.990;7.846;2023-02-12T17:38:06;4.00;99.90
30336;DHT22;17142;47.990;7.846;2023-02-12T17:40:34;4.00;99.90
30336;DHT22;17142;47.990;7.846;2023-02-12T17:43:01;4.00;99.90
30336;DHT22;17142;47.990;7.846;2023-02-12T17:45:29;3.90;99.90
30336;DHT22;17142;47.990;7.846;2023-02-12T17:47:55;3.90;99.90
30336;DHT22;17142;47.990;7.846;2023-02-12T17:50:20;3.80;99.90
30336;DHT22;17142;47.990;7.846;2023-02-12T17:52:46;3.80;99.90
30336;DHT22;17142;47.990;7.846;2023-02-12T17:55:12;3.70;99.90
30336;DHT22;17142;47.990;7.846;2023-02-12T17:57:39;3.70;99.90
30336;DHT22;17142;47.990;7.846;2023-02-12T18:00:07;3.70;99.90
30336;DHT22;17142;47.990;7.846;2023-02-12T18:02:37;3.70;99.90
30336;DHT22;17142;47.990;7.846;2023-02-12T18:05:03;3.70;99.90
30336;DHT22;17142;47.990;7.846;2023-02-12T18:07:32;3.70;99.90
30336;DHT22;17142;47.990;7.846;2023-02-12T18:10:02;3.70;99.90
30336;DHT22;17142;47.990;7.846;2023-02-12T18:12:34;3.60;99.90
30336;DHT22;17142;47.990;7.846;2023-02-12T18:15:01;3.60;99.90
30336;DHT22;17142;47.990;7.846;2023-02-12T18:17:27;3.60;99.90
30336;DHT22;17142;47.990;7.846;2023-02-12T18:19:53;3.50;99.90
30336;DHT22;17142;47.990;7.846;2023-02-12T18:22:22;3.50;99.90
30336;DHT22;17142;47.990;7.846;2023-02-12T18:24:50;3.40;99.90
30336;DHT22;17142;47.990;7.846;2023-02-12T18:27:16;3.40;99.90
30336;DHT22;17142;47.990;7.846;2023-02-12T18:29:43;3.30;99.90
30336;DHT22;17142;47.990;7.846;2023-02-12T18:32:11;3.30;99.90
30336;DHT22;17142;47.990;7.846;2023-02-12T18:34:41;3.30;99.90
30336;DHT22;17142;47.990;7.846;2023-02-12T18:37:08;3.40;99.90
30336;DHT22;17142;47.990;7.846;2023-02-12T18:39:34;3.40;99.90
30336;DHT22;17142;47.990;7.846;2023-02-12T18:41:59;3.40;99.90
30336;DHT22;17142;47.990;7.846;2023-02-12T18:44:25;3.40;99.90
30336;DHT22;17142;47.990;7.846;2023-02-12T18:46:51;3.40;99.90
30336;DHT22;17142;47.990;7.846;2023-02-12T18:49:16;3.30;99.90
30336;DHT22;17142;47.990;7.846;2023-02-12T18:51:42;3.20;99.90
30336;DHT22;17142;47.990;7.846;2023-02-12T18:54:11;3.10;99.90
30336;DHT22;17142;47.990;7.846;2023-02-12T18:56:41;3.00;99.90
30336;DHT22;17142;47.990;7.846;2023-02-12T18:59:10;2.90;99.90
30336;DHT22;17142;47.990;7.846;2023-02-12T19:01:36;2.80;99.90
30336;DHT22;17142;47.990;7.846;2023-02-12T19:04:04;2.80;99.90
30336;DHT22;17142;47.990;7.846;2023-02-12T19:06:38;2.80;99.90
30336;DHT22;17142;47.990;7.846;2023-02-12T19:09:06;2.80;99.90
30336;DHT22;17142;47.990;7.846;2023-02-12T19:11:33;2.80;99.90
30336;DHT22;17142;47.990;7.846;2023-02-12T19:13:58;2.80;99.90
30336;DHT22;17142;47.990;7.846;2023-02-12T19:16:26;2.70;99.90
30336;DHT22;17142;47.990;7.846;2023-02-12T19:18:54;2.70;99.90
30336;DHT22;17142;47.990;7.846;2023-02-12T19:21:21;2.60;99.90
30336;DHT22;17142;47.990;7.846;2023-02-12T19:23:50;2.60;99.90
30336;DHT22;17142;47.990;7.846;2023-02-12T19:26:15;2.60;99.90
30336;DHT22;17142;47.990;7.846;2023-02-12T19:28:43;2.50;99.90
30336;DHT22;17142;47.990;7.846;2023-02-12T19:31:14;2.50;99.90
30336;DHT22;17142;47.990;7.846;2023-02-12T19:33:43;2.50;99.90
30336;DHT22;17142;47.990;7.846;2023-02-12T19:36:11;2.40;99.90
30336;DHT22;17142;47.990;7.846;2023-02-12T19:38:37;2.40;99.90
30336;DHT22;17142;47.990;7.846;2023-02-12T19:41:04;2.40;99.90
30336;DHT22;17142;47.990;7.846;2023-02-12T19:43:30;2.50;99.90
30336;DHT22;17142;47.990;7.846;2023-02-12T19:46:04;2.40;99.90
30336;DHT22;17142;47.990;7.846;2023-02-12T19:48:32;2.40;99.90
30336;DHT22;17142;47.990;7.846;2023-02-12T19:50:58;2.40;99.90
30336;DHT22;17142;47.990;7.846;2023-02-12T19:53:29;2.40;99.90
30336;DHT22;17142;47.990;7.846;2023-02-12T19:55:55;2.30;99.90
30336;DHT22;17142;47.990;7.846;2023-02-12T19:58:27;2.30;99.90
30336;DHT22;17142;47.990;7.846;2023-02-12T20:00:55;2.20;99.90
30336;DHT22;17142;47.990;7.846;2023-02-12T20:03:21;2.10;99.90
30336;DHT22;17142;47.990;7.846;2023-02-12T20:06:01;2.10;99.90
30336;DHT22;17142;47.990;7.846;2023-02-12T20:08:27;2.10;99.90
30336;DHT22;17142;47.990;7.846;2023-02-12T20:10:55;2.00;99.90
30336;DHT22;17142;47.990;7.846;2023-02-12T20:13:21;2.00;99.90
30336;DHT22;17142;47.990;7.846;2023-02-12T20:15:47;2.00;99.90
30336;DHT22;17142;47.990;7.846;2023-02-12T20:18:13;2.00;99.90
30336;DHT22;17142;47.990;7.846;2023-02-12T20:20:39;2.00;99.90
30336;DHT22;17142;47.990;7.846;2023-02-12T20:23:04;2.00;99.90
30336;DHT22;17142;47.990;7.846;2023-02-12T20:25:40;1.90;99.90
30336;DHT22;17142;47.990;7.846;2023-02-12T20:28:05;1.90;99.90
30336;DHT22;17142;47.990;7.846;2023-02-12T20:30:31;1.80;99.90
30336;DHT22;17142;47.990;7.846;2023-02-12T20:33:01;1.90;99.90
30336;DHT22;17142;47.990;7.846;2023-02-12T20:35:26;1.90;99.90
30336;DHT22;17142;47.990;7.846;2023-02-12T20:37:53;1.90;99.90
30336;DHT22;17142;47.990;7.846;2023-02-12T20:40:21;1.90;99.90
30336;DHT22;17142;47.990;7.846;2023-02-12T20:42:50;1.80;99.90
30336;DHT22;17142;47.990;7.846;2023-02-12T20:45:15;1.80;99.90
30336;DHT22;17142;47.990;7.846;2023-02-12T20:47:41;1.80;99.90
30336;DHT22;17142;47.990;7.846;2023-02-12T20:50:07;1.80;99.90
30336;DHT22;17142;47.990;7.846;2023-02-12T20:52:33;1.80;99.90
30336;DHT22;17142;47.990;7.846;2023-02-12T20:54:58;1.70;99.90
30336;DHT22;17142;47.990;7.846;2023-02-12T20:57:24;1.70;99.90
30336;DHT22;17142;47.990;7.846;2023-02-12T20:59:49;1.70;99.90
30336;DHT22;17142;47.990;7.846;2023-02-12T21:02:15;1.60;99.90
30336;DHT22;17142;47.990;7.846;2023-02-12T21:04:43;1.60;99.90
30336;DHT22;17142;47.990;7.846;2023-02-12T21:07:10;1.60;99.90
30336;DHT22;17142;47.990;7.846;2023-02-12T21:09:39;1.60;99.90
30336;DHT22;17142;47.990;7.846;2023-02-12T21:12:07;1.60;99.90
30336;DHT22;17142;47.990;7.846;2023-02-12T21:14:32;1.60;99.90
30336;DHT22;17142;47.990;7.846;2023-02-12T21:16:58;1.50;99.90
30336;DHT22;17142;47.990;7.846;2023-02-12T21:19:24;1.50;99.90
30336;DHT22;17142;47.990;7.846;2023-02-12T21:21:50;1.40;99.90
30336;DHT22;17142;47.990;7.846;2023-02-12T21:24:21;1.40;99.90
30336;DHT22;17142;47.990;7.846;2023-02-12T21:26:47;1.30;99.90
30336;DHT22;17142;47.990;7.846;2023-02-12T21:29:13;1.40;99.90
30336;DHT22;17142;47.990;7.846;2023-02-12T21:31:41;1.50;99.90
30336;DHT22;17142;47.990;7.846;2023-02-12T21:34:13;1.50;99.90
30336;DHT22;17142;47.990;7.846;2023-02-12T21:36:40;1.60;99.90
30336;DHT22;17142;47.990;7.846;2023-02-12T21:39:10;1.60;99.90
30336;DHT22;17142;47.990;7.846;2023-02-12T21:41:39;1.60;99.90
30336;DHT22;17142;47.990;7.846;2023-02-12T21:44:11;1.60;99.90
30336;DHT22;17142;47.990;7.846;2023-02-12T21:46:38;1.60;99.90
30336;DHT22;17142;47.990;7.846;2023-02-12T21:49:04;1.60;99.90
30336;DHT22;17142;47.990;7.846;2023-02-12T21:51:35;1.60;99.90
30336;DHT22;17142;47.990;7.846;2023-02-12T21:54:04;1.60;99.90
30336;DHT22;17142;47.990;7.846;2023-02-12T21:56:38;1.60;99.90
30336;DHT22;17142;47.990;7.846;2023-02-12T21:59:07;1.60;99.90
30336;DHT22;17142;47.990;7.846;2023-02-12T22:01:38;1.70;99.90
30336;DHT22;17142;47.990;7.846;2023-02-12T22:04:08;1.70;99.90
30336;DHT22;17142;47.990;7.846;2023-02-12T22:06:46;1.80;99.90
30336;DHT22;17142;47.990;7.846;2023-02-12T22:09:14;1.70;99.90
30336;DHT22;17142;47.990;7.846;2023-02-12T22:11:42;1.60;99.90
30336;DHT22;17142;47.990;7.846;2023-02-12T22:14:11;1.60;99.90
30336;DHT22;17142;47.990;7.846;2023-02-12T22:16:40;1.70;99.90
30336;DHT22;17142;47.990;7.846;2023-02-12T22:19:09;1.80;99.90
30336;DHT22;17142;47.990;7.846;2023-02-12T22:21:38;1.70;99.90
30336;DHT22;17142;47.990;7.846;2023-02-12T22:24:06;1.70;99.90
30336;DHT22;17142;47.990;7.846;2023-02-12T22:26:33;1.70;99.90
30336;DHT22;17142;47.990;7.846;2023-02-12T22:29:02;1.70;99.90
30336;DHT22;17142;47.990;7.846;2023-02-12T22:31:31;1.70;99.90
30336;DHT22;17142;47.990;7.846;2023-02-12T22:33:59;1.70;99.90
30336;DHT22;17142;47.990;7.846;2023-02-12T22:36:26;1.70;99.90
30336;DHT22;17142;47.990;7.846;2023-02-12T22:38:54;1.60;99.90
30336;DHT22;17142;47.990;7.846;2023-02-12T22:41:22;1.60;99.90
30336;DHT22;17142;47.990;7.846;2023-02-12T22:43:50;1.50;99.90
30336;DHT22;17142;47.990;7.846;2023-02-12T22:46:16;1.50;99.90
30336;DHT22;17142;47.990;7.846;2023-02-12T22:48:42;1.40;99.90
30336;DHT22;17142;47.990;7.846;2023-02-12T22:51:21;1.30;99.90
30336;DHT22;17142;47.990;7.846;2023-02-12T22:53:47;1.30;99.90
30336;DHT22;17142;47.990;7.846;2023-02-12T22:56:13;1.30;99.90
30336;DHT22;17142;47.990;7.846;2023-02-12T22:58:41;1.20;99.90
30336;DHT22;17142;47.990;7.846;2023-02-12T23:01:13;1.20;99.90
30336;DHT22;17142;47.990;7.846;2023-02-12T23:03:39;1.10;99.90
30336;DHT22;17142;47.990;7.846;2023-02-12T23:06:13;1.10;99.90
30336;DHT22;17142;47.990;7.846;2023-02-12T23:08:39;1.10;99.90
30336;DHT22;17142;47.990;7.846;2023-02-12T23:11:05;1.10;99.90
30336;DHT22;17142;47.990;7.846;2023-02-12T23:13:34;1.00;99.90
30336;DHT22;17142;47.990;7.846;2023-02-12T23:16:05;1.00;99.90
30336;DHT22;17142;47.990;7.846;2023-02-12T23:18:34;0.90;99.90
30336;DHT22;17142;47.990;7.846;2023-02-12T23:21:02;0.90;99.90
30336;DHT22;17142;47.990;7.846;2023-02-12T23:23:33;0.80;99.90
30336;DHT22;17142;47.990;7.846;2023-02-12T23:25:59;0.70;99.90
30336;DHT22;17142;47.990;7.846;2023-02-12T23:28:25;0.70;99.90
30336;DHT22;17142;47.990;7.846;2023-02-12T23:30:51;0.60;99.90
30336;DHT22;17142;47.990;7.846;2023-02-12T23:33:18;0.70;99.90
30336;DHT22;17142;47.990;7.846;2023-02-12T23:35:44;0.60;99.90
30336;DHT22;17142;47.990;7.846;2023-02-12T23:38:11;0.60;99.90
30336;DHT22;17142;47.990;7.846;2023-02-12T23:40:36;0.60;99.90
30336;DHT22;17142;47.990;7.846;2023-02-12T23:43:05;0.50;99.90
30336;DHT22;17142;47.990;7.846;2023-02-12T23:45:30;0.50;99.90
30336;DHT22;17142;47.990;7.846;2023-02-12T23:47:57;0.50;99.90
30336;DHT22;17142;47.990;7.846;2023-02-12T23:50:26;0.50;99.90
30336;DHT22;17142;47.990;7.846;2023-02-12T23:52:55;0.60;99.90
30336;DHT22;17142;47.990;7.846;2023-02-12T23:55:20;0.70;99.90
30336;DHT22;17142;47.990;7.846;2023-02-12T23:57:46;0.70;99.90
